sensor_id;sensor_type;location;lat;lon;timestamp;temperature;humidity
20712;DHT22;10517;50.742;4.224;2022-08-19T00:00:13;18.80;99.90
20712;DHT22;10517;50.742;4.224;2022-08-19T00:02:40;18.70;99.90
20712;DHT22;10517;50.742;4.224;2022-08-19T00:05:07;18.70;99.90
20712;DHT22;10517;50.742;4.224;2022-08-19T00:07:33;18.60;99.90
20712;DHT22;10517;50.742;4.224;2022-08-19T00:09:58;18.60;99.90
20712;DHT22;10517;50.742;4.224;2022-08-19T00:12:24;18.60;99.90
20712;DHT22;10517;50.742;4.224;2022-08-19T00:14:50;18.60;99.90
20712;DHT22;10517;50.742;4.224;2022-08-19T00:17:15;18.60;99.90
20712;DHT22;10517;50.742;4.224;2022-08-19T00:19:41;18.70;99.90
20712;DHT22;10517;50.742;4.224;2022-08-19T00:22:07;18.80;99.90
20712;DHT22;10517;50.742;4.224;2022-08-19T00:24:34;18.80;99.90
20712;DHT22;10517;50.742;4.224;2022-08-19T00:27:01;18.90;99.90
20712;DHT22;10517;50.742;4.224;2022-08-19T00:29:27;18.90;99.90
20712;DHT22;10517;50.742;4.224;2022-08-19T00:31:54;18.90;99.90
20712;DHT22;10517;50.742;4.224;2022-08-19T00:34:21;19.00;99.90
20712;DHT22;10517;50.742;4.224;2022-08-19T00:36:47;19.00;99.90
20712;DHT22;10517;50.742;4.224;2022-08-19T00:39:17;19.00;99.90
20712;DHT22;10517;50.742;4.224;2022-08-19T00:41:44;19.00;99.90
20712;DHT22;10517;50.742;4.224;2022-08-19T00:44:19;19.00;99.90
20712;DHT22;10517;50.742;4.224;2022-08-19T00:46:46;19.10;99.90
20712;DHT22;10517;50.742;4.224;2022-08-19T00:49:17;19.20;99.90
20712;DHT22;10517;50.742;4.224;2022-08-19T00:51:47;19.30;99.90
20712;DHT22;10517;50.742;4.224;2022-08-19T00:54:14;19.20;99.90
20712;DHT22;10517;50.742;4.224;2022-08-19T00:56:41;19.20;99.90
20712;DHT22;10517;50.742;4.224;2022-08-19T00:59:07;19.20;99.90
20712;DHT22;10517;50.742;4.224;2022-08-19T01:01:36;19.20;99.90
20712;DHT22;10517;50.742;4.224;2022-08-19T01:04:02;19.20;99.90
20712;DHT22;10517;50.742;4.224;2022-08-19T01:06:28;19.20;99.90
20712;DHT22;10517;50.742;4.224;2022-08-19T01:08:58;19.10;99.90
20712;DHT22;10517;50.742;4.224;2022-08-19T01:11:24;19.00;99.90
20712;DHT22;10517;50.742;4.224;2022-08-19T01:13:52;19.00;99.90
20712;DHT22;10517;50.742;4.224;2022-08-19T01:16:20;18.90;99.90
20712;DHT22;10517;50.742;4.224;2022-08-19T01:18:47;18.90;99.90
20712;DHT22;10517;50.742;4.224;2022-08-19T01:23:47;18.60;99.90
20712;DHT22;10517;50.742;4.224;2022-08-19T01:26:17;18.60;99.90
20712;DHT22;10517;50.742;4.224;2022-08-19T01:28:44;18.40;99.90
20712;DHT22;10517;50.742;4.224;2022-08-19T01:31:13;18.30;99.90
20712;DHT22;10517;50.742;4.224;2022-08-19T01:33:39;18.30;99.90
20712;DHT22;10517;50.742;4.224;2022-08-19T01:36:12;18.20;99.90
20712;DHT22;10517;50.742;4.224;2022-08-19T01:38:40;18.20;99.90
20712;DHT22;10517;50.742;4.224;2022-08-19T01:41:07;18.10;99.90
20712;DHT22;10517;50.742;4.224;2022-08-19T01:43:33;18.10;99.90
20712;DHT22;10517;50.742;4.224;2022-08-19T01:45:59;18.10;99.90
20712;DHT22;10517;50.742;4.224;2022-08-19T01:48:26;18.10;99.90
20712;DHT22;10517;50.742;4.224;2022-08-19T01:50:52;18.00;99.90
20712;DHT22;10517;50.742;4.224;2022-08-19T01:53:17;18.00;99.90
20712;DHT22;10517;50.742;4.224;2022-08-19T01:55:43;18.00;99.90
20712;DHT22;10517;50.742;4.224;2022-08-19T01:58:14;18.00;99.90
20712;DHT22;10517;50.742;4.224;2022-08-19T02:00:40;17.90;99.90
20712;DHT22;10517;50.742;4.224;2022-08-19T02:03:06;17.80;99.90
20712;DHT22;10517;50.742;4.224;2022-08-19T02:05:34;17.80;99.90
20712;DHT22;10517;50.742;4.224;2022-08-19T02:08:00;17.80;99.90
20712;DHT22;10517;50.742;4.224;2022-08-19T02:10:25;17.70;99.90
20712;DHT22;10517;50.742;4.224;2022-08-19T02:12:51;17.70;99.90
20712;DHT22;10517;50.742;4.224;2022-08-19T02:15:19;17.70;99.90
20712;DHT22;10517;50.742;4.224;2022-08-19T02:17:45;17.70;99.90
20712;DHT22;10517;50.742;4.224;2022-08-19T02:20:12;17.70;99.90
20712;DHT22;10517;50.742;4.224;2022-08-19T02:22:38;17.60;99.90
20712;DHT22;10517;50.742;4.224;2022-08-19T02:25:07;17.60;99.90
20712;DHT22;10517;50.742;4.224;2022-08-19T02:27:32;17.60;99.90
20712;DHT22;10517;50.742;4.224;2022-08-19T02:29:59;17.50;99.90
20712;DHT22;10517;50.742;4.224;2022-08-19T02:32:25;17.50;99.90
20712;DHT22;10517;50.742;4.224;2022-08-19T02:34:50;17.40;99.90
20712;DHT22;10517;50.742;4.224;2022-08-19T02:37:16;17.30;99.90
20712;DHT22;10517;50.742;4.224;2022-08-19T02:40:00;17.20;99.90
20712;DHT22;10517;50.742;4.224;2022-08-19T02:42:26;17.20;99.90
20712;DHT22;10517;50.742;4.224;2022-08-19T02:44:52;17.20;99.90
20712;DHT22;10517;50.742;4.224;2022-08-19T02:47:20;17.10;99.90
20712;DHT22;10517;50.742;4.224;2022-08-19T02:49:46;17.10;99.90
20712;DHT22;10517;50.742;4.224;2022-08-19T02:52:15;17.10;99.90
20712;DHT22;10517;50.742;4.224;2022-08-19T02:54:41;17.10;99.90
20712;DHT22;10517;50.742;4.224;2022-08-19T02:57:07;17.10;99.90
20712;DHT22;10517;50.742;4.224;2022-08-19T02:59:33;17.00;99.90
20712;DHT22;10517;50.742;4.224;2022-08-19T03:01:59;17.00;99.90
20712;DHT22;10517;50.742;4.224;2022-08-19T03:04:24;16.90;99.90
20712;DHT22;10517;50.742;4.224;2022-08-19T03:06:50;16.90;99.90
20712;DHT22;10517;50.742;4.224;2022-08-19T03:09:18;16.90;99.90
20712;DHT22;10517;50.742;4.224;2022-08-19T03:11:45;16.80;99.90
20712;DHT22;10517;50.742;4.224;2022-08-19T03:14:10;16.70;99.90
20712;DHT22;10517;50.742;4.224;2022-08-19T03:16:43;16.70;99.90
20712;DHT22;10517;50.742;4.224;2022-08-19T03:19:10;16.80;99.90
20712;DHT22;10517;50.742;4.224;2022-08-19T03:21:35;16.70;99.90
20712;DHT22;10517;50.742;4.224;2022-08-19T03:24:04;16.70;99.90
20712;DHT22;10517;50.742;4.224;2022-08-19T03:26:30;16.70;99.90
20712;DHT22;10517;50.742;4.224;2022-08-19T03:28:56;16.70;99.90
20712;DHT22;10517;50.742;4.224;2022-08-19T03:31:24;16.70;99.90
20712;DHT22;10517;50.742;4.224;2022-08-19T03:33:50;16.70;99.90
20712;DHT22;10517;50.742;4.224;2022-08-19T03:36:19;16.70;99.90
20712;DHT22;10517;50.742;4.224;2022-08-19T03:38:48;16.70;99.90
20712;DHT22;10517;50.742;4.224;2022-08-19T03:41:17;16.60;99.90
20712;DHT22;10517;50.742;4.224;2022-08-19T03:43:44;16.60;99.90
20712;DHT22;10517;50.742;4.224;2022-08-19T03:46:13;16.60;99.90
20712;DHT22;10517;50.742;4.224;2022-08-19T03:48:41;16.60;99.90
20712;DHT22;10517;50.742;4.224;2022-08-19T03:51:08;16.60;99.90
20712;DHT22;10517;50.742;4.224;2022-08-19T03:53:41;16.60;99.90
20712;DHT22;10517;50.742;4.224;2022-08-19T03:56:08;16.60;99.90
20712;DHT22;10517;50.742;4.224;2022-08-19T03:58:35;16.60;99.90
20712;DHT22;10517;50.742;4.224;2022-08-19T04:01:01;16.60;99.90
20712;DHT22;10517;50.742;4.224;2022-08-19T04:03:26;16.50;99.90
20712;DHT22;10517;50.742;4.224;2022-08-19T04:05:53;16.50;99.90
20712;DHT22;10517;50.742;4.224;2022-08-19T04:08:19;16.50;99.90
20712;DHT22;10517;50.742;4.224;2022-08-19T04:10:48;16.50;99.90
20712;DHT22;10517;50.742;4.224;2022-08-19T04:13:16;16.50;99.90
20712;DHT22;10517;50.742;4.224;2022-08-19T04:15:44;16.50;99.90
20712;DHT22;10517;50.742;4.224;2022-08-19T04:18:11;16.50;99.90
20712;DHT22;10517;50.742;4.224;2022-08-19T04:20:45;16.50;99.90
20712;DHT22;10517;50.742;4.224;2022-08-19T04:23:12;16.50;99.90
20712;DHT22;10517;50.742;4.224;2022-08-19T04:25:40;16.50;99.90
20712;DHT22;10517;50.742;4.224;2022-08-19T04:28:07;16.40;99.90
20712;DHT22;10517;50.742;4.224;2022-08-19T04:30:44;16.40;99.90
20712;DHT22;10517;50.742;4.224;2022-08-19T04:33:12;16.40;99.90
20712;DHT22;10517;50.742;4.224;2022-08-19T04:35:40;16.30;99.90
20712;DHT22;10517;50.742;4.224;2022-08-19T04:38:07;16.30;99.90
20712;DHT22;10517;50.742;4.224;2022-08-19T04:40:33;16.30;99.90
20712;DHT22;10517;50.742;4.224;2022-08-19T04:43:17;16.30;99.90
20712;DHT22;10517;50.742;4.224;2022-08-19T04:45:44;16.30;99.90
20712;DHT22;10517;50.742;4.224;2022-08-19T04:48:11;16.30;99.90
20712;DHT22;10517;50.742;4.224;2022-08-19T04:50:40;16.30;99.90
20712;DHT22;10517;50.742;4.224;2022-08-19T04:53:07;16.20;99.90
20712;DHT22;10517;50.742;4.224;2022-08-19T04:55:33;16.20;99.90
20712;DHT22;10517;50.742;4.224;2022-08-19T04:57:59;16.20;99.90
20712;DHT22;10517;50.742;4.224;2022-08-19T05:00:24;16.30;99.90
20712;DHT22;10517;50.742;4.224;2022-08-19T05:02:50;16.30;99.90
20712;DHT22;10517;50.742;4.224;2022-08-19T05:05:16;16.40;99.90
20712;DHT22;10517;50.742;4.224;2022-08-19T05:07:42;16.30;99.90
20712;DHT22;10517;50.742;4.224;2022-08-19T05:10:08;16.30;99.90
20712;DHT22;10517;50.742;4.224;2022-08-19T05:12:34;16.30;99.90
20712;DHT22;10517;50.742;4.224;2022-08-19T05:15:01;16.40;99.90
20712;DHT22;10517;50.742;4.224;2022-08-19T05:17:27;16.40;99.90
20712;DHT22;10517;50.742;4.224;2022-08-19T05:19:53;16.40;99.90
20712;DHT22;10517;50.742;4.224;2022-08-19T05:22:38;16.40;99.90
20712;DHT22;10517;50.742;4.224;2022-08-19T05:25:10;16.50;99.90
20712;DHT22;10517;50.742;4.224;2022-08-19T05:27:37;16.50;99.90
20712;DHT22;10517;50.742;4.224;2022-08-19T05:30:04;16.60;99.90
20712;DHT22;10517;50.742;4.224;2022-08-19T05:32:30;16.70;99.90
20712;DHT22;10517;50.742;4.224;2022-08-19T05:34:56;16.80;99.90
20712;DHT22;10517;50.742;4.224;2022-08-19T05:37:22;16.90;99.90
20712;DHT22;10517;50.742;4.224;2022-08-19T05:39:48;17.00;99.90
20712;DHT22;10517;50.742;4.224;2022-08-19T05:42:14;17.10;99.90
20712;DHT22;10517;50.742;4.224;2022-08-19T05:44:42;17.30;99.90
20712;DHT22;10517;50.742;4.224;2022-08-19T05:47:11;17.40;99.90
20712;DHT22;10517;50.742;4.224;2022-08-19T05:49:38;17.50;99.90
20712;DHT22;10517;50.742;4.224;2022-08-19T05:52:05;17.60;99.90
20712;DHT22;10517;50.742;4.224;2022-08-19T05:54:31;17.70;99.90
20712;DHT22;10517;50.742;4.224;2022-08-19T05:56:57;17.90;99.90
20712;DHT22;10517;50.742;4.224;2022-08-19T05:59:23;18.00;99.90
20712;DHT22;10517;50.742;4.224;2022-08-19T06:01:51;18.10;99.90
20712;DHT22;10517;50.742;4.224;2022-08-19T06:04:19;18.10;99.90
20712;DHT22;10517;50.742;4.224;2022-08-19T06:06:50;18.10;99.90
20712;DHT22;10517;50.742;4.224;2022-08-19T06:09:17;18.10;99.90
20712;DHT22;10517;50.742;4.224;2022-08-19T06:11:44;18.10;99.90
20712;DHT22;10517;50.742;4.224;2022-08-19T06:14:17;18.20;99.90
20712;DHT22;10517;50.742;4.224;2022-08-19T06:16:44;18.20;99.90
20712;DHT22;10517;50.742;4.224;2022-08-19T06:19:13;18.30;99.90
20712;DHT22;10517;50.742;4.224;2022-08-19T06:21:41;18.30;99.90
20712;DHT22;10517;50.742;4.224;2022-08-19T06:24:10;18.30;99.90
20712;DHT22;10517;50.742;4.224;2022-08-19T06:26:39;18.40;99.90
20712;DHT22;10517;50.742;4.224;2022-08-19T06:29:06;18.50;99.90
20712;DHT22;10517;50.742;4.224;2022-08-19T06:31:33;18.60;99.90
20712;DHT22;10517;50.742;4.224;2022-08-19T06:34:01;18.80;99.90
20712;DHT22;10517;50.742;4.224;2022-08-19T06:36:35;19.00;99.90
20712;DHT22;10517;50.742;4.224;2022-08-19T06:39:03;19.30;99.90
20712;DHT22;10517;50.742;4.224;2022-08-19T06:41:35;19.30;99.90
20712;DHT22;10517;50.742;4.224;2022-08-19T06:44:01;19.40;99.90
20712;DHT22;10517;50.742;4.224;2022-08-19T06:46:27;19.60;99.90
20712;DHT22;10517;50.742;4.224;2022-08-19T06:48:53;19.80;99.90
20712;DHT22;10517;50.742;4.224;2022-08-19T06:51:20;19.80;99.90
20712;DHT22;10517;50.742;4.224;2022-08-19T06:53:47;20.00;99.90
20712;DHT22;10517;50.742;4.224;2022-08-19T06:56:18;20.00;99.90
20712;DHT22;10517;50.742;4.224;2022-08-19T06:58:44;20.20;99.90
20712;DHT22;10517;50.742;4.224;2022-08-19T07:01:10;20.40;99.90
20712;DHT22;10517;50.742;4.224;2022-08-19T07:03:37;20.70;99.90
20712;DHT22;10517;50.742;4.224;2022-08-19T07:06:10;20.60;99.90
20712;DHT22;10517;50.742;4.224;2022-08-19T07:08:37;20.50;99.90
20712;DHT22;10517;50.742;4.224;2022-08-19T07:11:11;20.70;99.90
20712;DHT22;10517;50.742;4.224;2022-08-19T07:13:38;20.90;99.90
20712;DHT22;10517;50.742;4.224;2022-08-19T07:18:31;21.40;99.90
20712;DHT22;10517;50.742;4.224;2022-08-19T07:21:04;21.60;99.90
20712;DHT22;10517;50.742;4.224;2022-08-19T07:23:30;21.60;99.90
20712;DHT22;10517;50.742;4.224;2022-08-19T07:25:56;21.70;99.90
20712;DHT22;10517;50.742;4.224;2022-08-19T07:28:22;22.00;99.90
20712;DHT22;10517;50.742;4.224;2022-08-19T07:30:48;22.10;99.90
20712;DHT22;10517;50.742;4.224;2022-08-19T07:33:15;22.30;99.90
20712;DHT22;10517;50.742;4.224;2022-08-19T07:35:41;22.60;99.90
20712;DHT22;10517;50.742;4.224;2022-08-19T07:38:07;22.50;99.90
20712;DHT22;10517;50.742;4.224;2022-08-19T07:40:33;22.50;99.90
20712;DHT22;10517;50.742;4.224;2022-08-19T07:42:59;22.70;99.90
20712;DHT22;10517;50.742;4.224;2022-08-19T07:45:24;22.70;99.90
20712;DHT22;10517;50.742;4.224;2022-08-19T07:47:50;22.80;99.90
20712;DHT22;10517;50.742;4.224;2022-08-19T07:50:19;22.90;99.90
20712;DHT22;10517;50.742;4.224;2022-08-19T07:52:45;22.70;99.90
20712;DHT22;10517;50.742;4.224;2022-08-19T07:55:12;22.80;99.90
20712;DHT22;10517;50.742;4.224;2022-08-19T07:57:38;22.80;99.90
20712;DHT22;10517;50.742;4.224;2022-08-19T08:00:05;22.80;99.90
20712;DHT22;10517;50.742;4.224;2022-08-19T08:02:31;22.80;99.90
20712;DHT22;10517;50.742;4.224;2022-08-19T08:04:57;22.80;99.90
20712;DHT22;10517;50.742;4.224;2022-08-19T08:07:41;22.90;99.90
20712;DHT22;10517;50.742;4.224;2022-08-19T08:10:32;23.00;99.90
20712;DHT22;10517;50.742;4.224;2022-08-19T08:12:58;23.10;99.90
20712;DHT22;10517;50.742;4.224;2022-08-19T08:15:24;23.40;99.90
20712;DHT22;10517;50.742;4.224;2022-08-19T08:17:50;23.50;99.90
20712;DHT22;10517;50.742;4.224;2022-08-19T08:20:16;23.70;99.90
20712;DHT22;10517;50.742;4.224;2022-08-19T08:22:46;23.90;99.90
20712;DHT22;10517;50.742;4.224;2022-08-19T08:25:31;23.80;99.90
20712;DHT22;10517;50.742;4.224;2022-08-19T08:27:57;24.00;99.90
20712;DHT22;10517;50.742;4.224;2022-08-19T08:30:27;23.80;99.90
20712;DHT22;10517;50.742;4.224;2022-08-19T08:32:53;23.70;99.90
20712;DHT22;10517;50.742;4.224;2022-08-19T08:35:21;23.50;99.90
20712;DHT22;10517;50.742;4.224;2022-08-19T08:37:48;23.30;99.90
20712;DHT22;10517;50.742;4.224;2022-08-19T08:40:43;23.50;99.90
20712;DHT22;10517;50.742;4.224;2022-08-19T08:46:00;23.30;99.90
20712;DHT22;10517;50.742;4.224;2022-08-19T08:49:02;23.10;99.90
20712;DHT22;10517;50.742;4.224;2022-08-19T08:51:37;23.00;99.90
20712;DHT22;10517;50.742;4.224;2022-08-19T08:54:10;23.10;99.90
20712;DHT22;10517;50.742;4.224;2022-08-19T08:56:39;23.10;99.90
20712;DHT22;10517;50.742;4.224;2022-08-19T08:59:12;23.20;99.90
20712;DHT22;10517;50.742;4.224;2022-08-19T09:01:42;23.40;99.90
20712;DHT22;10517;50.742;4.224;2022-08-19T09:04:09;23.70;99.90
20712;DHT22;10517;50.742;4.224;2022-08-19T09:06:55;23.80;99.90
20712;DHT22;10517;50.742;4.224;2022-08-19T09:09:43;23.10;99.90
20712;DHT22;10517;50.742;4.224;2022-08-19T09:12:43;23.00;99.90
20712;DHT22;10517;50.742;4.224;2022-08-19T09:15:15;23.30;99.90
20712;DHT22;10517;50.742;4.224;2022-08-19T09:17:42;23.30;99.90
20712;DHT22;10517;50.742;4.224;2022-08-19T09:20:21;23.50;99.90
20712;DHT22;10517;50.742;4.224;2022-08-19T09:22:47;23.50;99.90
20712;DHT22;10517;50.742;4.224;2022-08-19T09:25:16;23.20;99.90
20712;DHT22;10517;50.742;4.224;2022-08-19T09:27:42;22.80;99.90
20712;DHT22;10517;50.742;4.224;2022-08-19T09:30:12;23.00;99.90
20712;DHT22;10517;50.742;4.224;2022-08-19T09:32:38;23.10;99.90
20712;DHT22;10517;50.742;4.224;2022-08-19T09:35:04;23.40;99.90
20712;DHT22;10517;50.742;4.224;2022-08-19T09:37:31;23.50;99.90
20712;DHT22;10517;50.742;4.224;2022-08-19T09:39:57;23.40;99.90
20712;DHT22;10517;50.742;4.224;2022-08-19T09:42:23;23.50;99.90
20712;DHT22;10517;50.742;4.224;2022-08-19T09:44:48;23.60;99.90
20712;DHT22;10517;50.742;4.224;2022-08-19T09:47:14;23.50;99.90
20712;DHT22;10517;50.742;4.224;2022-08-19T09:49:41;23.40;99.90
20712;DHT22;10517;50.742;4.224;2022-08-19T09:52:10;23.20;99.90
20712;DHT22;10517;50.742;4.224;2022-08-19T09:54:37;23.30;99.90
20712;DHT22;10517;50.742;4.224;2022-08-19T09:57:03;23.50;99.90
20712;DHT22;10517;50.742;4.224;2022-08-19T09:59:29;23.60;99.90
20712;DHT22;10517;50.742;4.224;2022-08-19T10:01:55;23.80;99.90
20712;DHT22;10517;50.742;4.224;2022-08-19T10:04:21;24.10;99.90
20712;DHT22;10517;50.742;4.224;2022-08-19T10:06:48;24.10;99.90
20712;DHT22;10517;50.742;4.224;2022-08-19T10:09:16;24.10;99.90
20712;DHT22;10517;50.742;4.224;2022-08-19T10:11:44;24.20;99.90
20712;DHT22;10517;50.742;4.224;2022-08-19T10:14:15;24.10;99.90
20712;DHT22;10517;50.742;4.224;2022-08-19T10:16:42;24.00;99.90
20712;DHT22;10517;50.742;4.224;2022-08-19T10:19:08;24.10;99.90
20712;DHT22;10517;50.742;4.224;2022-08-19T10:21:35;23.30;99.90
20712;DHT22;10517;50.742;4.224;2022-08-19T10:24:03;23.00;99.90
20712;DHT22;10517;50.742;4.224;2022-08-19T10:26:35;23.20;99.90
20712;DHT22;10517;50.742;4.224;2022-08-19T10:29:03;23.40;99.90
20712;DHT22;10517;50.742;4.224;2022-08-19T10:31:32;23.50;99.90
20712;DHT22;10517;50.742;4.224;2022-08-19T10:33:58;23.70;99.90
20712;DHT22;10517;50.742;4.224;2022-08-19T10:36:30;23.50;99.90
20712;DHT22;10517;50.742;4.224;2022-08-19T10:38:59;23.50;99.90
20712;DHT22;10517;50.742;4.224;2022-08-19T10:41:29;23.80;99.90
20712;DHT22;10517;50.742;4.224;2022-08-19T10:43:57;23.80;99.90
20712;DHT22;10517;50.742;4.224;2022-08-19T10:46:25;23.80;99.90
20712;DHT22;10517;50.742;4.224;2022-08-19T10:48:52;24.00;99.90
20712;DHT22;10517;50.742;4.224;2022-08-19T10:51:18;24.20;99.90
20712;DHT22;10517;50.742;4.224;2022-08-19T10:54:03;24.40;99.90
20712;DHT22;10517;50.742;4.224;2022-08-19T10:56:29;24.50;99.90
20712;DHT22;10517;50.742;4.224;2022-08-19T10:59:15;24.80;99.90
20712;DHT22;10517;50.742;4.224;2022-08-19T11:01:42;24.90;99.90
20712;DHT22;10517;50.742;4.224;2022-08-19T11:04:09;25.00;99.90
20712;DHT22;10517;50.742;4.224;2022-08-19T11:06:37;25.10;99.90
20712;DHT22;10517;50.742;4.224;2022-08-19T11:09:04;25.10;99.90
20712;DHT22;10517;50.742;4.224;2022-08-19T11:11:30;25.10;99.90
20712;DHT22;10517;50.742;4.224;2022-08-19T11:13:57;25.10;99.90
20712;DHT22;10517;50.742;4.224;2022-08-19T11:16:25;25.10;99.90
20712;DHT22;10517;50.742;4.224;2022-08-19T11:18:57;25.10;99.90
20712;DHT22;10517;50.742;4.224;2022-08-19T11:21:30;25.10;99.90
20712;DHT22;10517;50.742;4.224;2022-08-19T11:24:02;25.60;99.90
20712;DHT22;10517;50.742;4.224;2022-08-19T11:26:29;25.90;99.90
20712;DHT22;10517;50.742;4.224;2022-08-19T11:28:57;25.90;99.90
20712;DHT22;10517;50.742;4.224;2022-08-19T11:31:25;26.20;99.90
20712;DHT22;10517;50.742;4.224;2022-08-19T11:33:51;26.60;99.90
20712;DHT22;10517;50.742;4.224;2022-08-19T11:36:20;27.10;99.90
20712;DHT22;10517;50.742;4.224;2022-08-19T11:38:49;27.50;99.90
20712;DHT22;10517;50.742;4.224;2022-08-19T11:41:16;27.60;99.90
20712;DHT22;10517;50.742;4.224;2022-08-19T11:43:42;27.80;99.90
20712;DHT22;10517;50.742;4.224;2022-08-19T11:46:11;28.10;99.90
20712;DHT22;10517;50.742;4.224;2022-08-19T11:48:37;28.10;99.90
20712;DHT22;10517;50.742;4.224;2022-08-19T11:51:09;28.10;99.90
20712;DHT22;10517;50.742;4.224;2022-08-19T11:53:36;28.10;99.90
20712;DHT22;10517;50.742;4.224;2022-08-19T11:56:03;28.40;99.90
20712;DHT22;10517;50.742;4.224;2022-08-19T11:58:29;28.50;99.90
20712;DHT22;10517;50.742;4.224;2022-08-19T12:00:55;28.80;99.90
20712;DHT22;10517;50.742;4.224;2022-08-19T12:03:21;28.60;99.90
20712;DHT22;10517;50.742;4.224;2022-08-19T12:05:46;28.10;99.90
20712;DHT22;10517;50.742;4.224;2022-08-19T12:08:12;28.30;99.90
20712;DHT22;10517;50.742;4.224;2022-08-19T12:10:39;28.10;99.90
20712;DHT22;10517;50.742;4.224;2022-08-19T12:13:06;28.60;99.90
20712;DHT22;10517;50.742;4.224;2022-08-19T12:15:39;28.30;99.90
20712;DHT22;10517;50.742;4.224;2022-08-19T12:18:08;27.90;99.90
20712;DHT22;10517;50.742;4.224;2022-08-19T12:20:36;28.30;99.90
20712;DHT22;10517;50.742;4.224;2022-08-19T12:23:03;28.10;99.90
20712;DHT22;10517;50.742;4.224;2022-08-19T12:25:32;28.30;99.90
20712;DHT22;10517;50.742;4.224;2022-08-19T12:27:59;28.00;99.90
20712;DHT22;10517;50.742;4.224;2022-08-19T12:30:25;27.60;99.90
20712;DHT22;10517;50.742;4.224;2022-08-19T12:32:51;27.60;99.90
20712;DHT22;10517;50.742;4.224;2022-08-19T12:35:17;28.00;99.90
20712;DHT22;10517;50.742;4.224;2022-08-19T12:37:47;27.90;99.90
20712;DHT22;10517;50.742;4.224;2022-08-19T12:40:14;27.90;99.90
20712;DHT22;10517;50.742;4.224;2022-08-19T12:42:40;28.50;99.90
20712;DHT22;10517;50.742;4.224;2022-08-19T12:45:10;28.70;99.90
20712;DHT22;10517;50.742;4.224;2022-08-19T12:47:36;28.80;99.90
20712;DHT22;10517;50.742;4.224;2022-08-19T12:50:02;28.80;99.90
20712;DHT22;10517;50.742;4.224;2022-08-19T12:52:29;28.90;99.90
20712;DHT22;10517;50.742;4.224;2022-08-19T12:54:56;29.10;99.90
20712;DHT22;10517;50.742;4.224;2022-08-19T12:57:24;29.00;99.90
20712;DHT22;10517;50.742;4.224;2022-08-19T12:59:53;28.70;99.90
20712;DHT22;10517;50.742;4.224;2022-08-19T13:02:19;28.30;99.90
20712;DHT22;10517;50.742;4.224;2022-08-19T13:04:45;28.60;99.90
20712;DHT22;10517;50.742;4.224;2022-08-19T13:07:11;28.40;99.90
20712;DHT22;10517;50.742;4.224;2022-08-19T13:09:36;28.10;99.90
20712;DHT22;10517;50.742;4.224;2022-08-19T13:12:03;28.10;99.90
20712;DHT22;10517;50.742;4.224;2022-08-19T13:14:33;28.10;99.90
20712;DHT22;10517;50.742;4.224;2022-08-19T13:16:58;28.50;99.90
20712;DHT22;10517;50.742;4.224;2022-08-19T13:19:24;28.90;99.90
20712;DHT22;10517;50.742;4.224;2022-08-19T13:21:50;29.10;99.90
20712;DHT22;10517;50.742;4.224;2022-08-19T13:24:17;29.50;99.90
20712;DHT22;10517;50.742;4.224;2022-08-19T13:26:43;30.00;99.90
20712;DHT22;10517;50.742;4.224;2022-08-19T13:29:09;30.40;99.90
20712;DHT22;10517;50.742;4.224;2022-08-19T13:31:53;30.50;99.90
20712;DHT22;10517;50.742;4.224;2022-08-19T13:34:37;29.60;99.90
20712;DHT22;10517;50.742;4.224;2022-08-19T13:37:04;28.60;99.90
20712;DHT22;10517;50.742;4.224;2022-08-19T13:39:31;27.90;99.90
20712;DHT22;10517;50.742;4.224;2022-08-19T13:41:58;27.50;99.90
20712;DHT22;10517;50.742;4.224;2022-08-19T13:44:25;27.70;99.90
20712;DHT22;10517;50.742;4.224;2022-08-19T13:46:52;27.60;99.90
20712;DHT22;10517;50.742;4.224;2022-08-19T13:49:19;27.20;99.90
20712;DHT22;10517;50.742;4.224;2022-08-19T13:51:45;26.40;99.90
20712;DHT22;10517;50.742;4.224;2022-08-19T13:54:11;26.10;99.90
20712;DHT22;10517;50.742;4.224;2022-08-19T13:56:42;25.90;99.90
20712;DHT22;10517;50.742;4.224;2022-08-19T13:59:09;25.70;99.90
20712;DHT22;10517;50.742;4.224;2022-08-19T14:01:35;25.60;99.90
20712;DHT22;10517;50.742;4.224;2022-08-19T14:04:02;25.20;99.90
20712;DHT22;10517;50.742;4.224;2022-08-19T14:06:28;25.00;99.90
20712;DHT22;10517;50.742;4.224;2022-08-19T14:08:54;24.50;99.90
20712;DHT22;10517;50.742;4.224;2022-08-19T14:11:20;24.30;99.90
20712;DHT22;10517;50.742;4.224;2022-08-19T14:13:45;24.40;99.90
20712;DHT22;10517;50.742;4.224;2022-08-19T14:16:13;24.40;99.90
20712;DHT22;10517;50.742;4.224;2022-08-19T14:18:39;24.70;99.90
20712;DHT22;10517;50.742;4.224;2022-08-19T14:21:05;24.90;99.90
20712;DHT22;10517;50.742;4.224;2022-08-19T14:23:32;25.20;99.90
20712;DHT22;10517;50.742;4.224;2022-08-19T14:26:06;25.60;99.90
20712;DHT22;10517;50.742;4.224;2022-08-19T14:28:32;26.70;99.90
20712;DHT22;10517;50.742;4.224;2022-08-19T14:30:58;28.70;99.90
20712;DHT22;10517;50.742;4.224;2022-08-19T14:33:24;30.60;99.90
20712;DHT22;10517;50.742;4.224;2022-08-19T14:35:49;31.30;99.90
20712;DHT22;10517;50.742;4.224;2022-08-19T14:38:17;32.40;99.90
20712;DHT22;10517;50.742;4.224;2022-08-19T14:40:43;32.80;99.90
20712;DHT22;10517;50.742;4.224;2022-08-19T14:43:09;32.90;99.90
20712;DHT22;10517;50.742;4.224;2022-08-19T14:45:37;34.60;99.90
20712;DHT22;10517;50.742;4.224;2022-08-19T14:48:04;35.30;99.90
20712;DHT22;10517;50.742;4.224;2022-08-19T14:50:30;34.80;99.90
20712;DHT22;10517;50.742;4.224;2022-08-19T14:53:01;34.20;99.90
20712;DHT22;10517;50.742;4.224;2022-08-19T14:55:29;33.50;99.90
20712;DHT22;10517;50.742;4.224;2022-08-19T14:57:55;32.20;99.90
20712;DHT22;10517;50.742;4.224;2022-08-19T15:00:22;31.60;99.90
20712;DHT22;10517;50.742;4.224;2022-08-19T15:02:48;30.80;99.90
20712;DHT22;10517;50.742;4.224;2022-08-19T15:05:14;30.50;99.90
20712;DHT22;10517;50.742;4.224;2022-08-19T15:07:40;30.50;99.90
20712;DHT22;10517;50.742;4.224;2022-08-19T15:10:07;30.20;99.90
20712;DHT22;10517;50.742;4.224;2022-08-19T15:12:34;30.10;99.90
20712;DHT22;10517;50.742;4.224;2022-08-19T15:15:00;30.20;99.90
20712;DHT22;10517;50.742;4.224;2022-08-19T15:17:26;30.20;99.90
20712;DHT22;10517;50.742;4.224;2022-08-19T15:19:51;31.10;99.90
20712;DHT22;10517;50.742;4.224;2022-08-19T15:22:17;33.20;99.90
20712;DHT22;10517;50.742;4.224;2022-08-19T15:24:43;35.00;99.90
20712;DHT22;10517;50.742;4.224;2022-08-19T15:27:12;36.30;99.90
20712;DHT22;10517;50.742;4.224;2022-08-19T15:29:38;38.20;99.90
20712;DHT22;10517;50.742;4.224;2022-08-19T15:32:05;39.50;99.90
20712;DHT22;10517;50.742;4.224;2022-08-19T15:34:31;40.60;97.30
20712;DHT22;10517;50.742;4.224;2022-08-19T15:36:57;40.70;96.10
20712;DHT22;10517;50.742;4.224;2022-08-19T15:39:24;40.20;93.10
20712;DHT22;10517;50.742;4.224;2022-08-19T15:41:49;40.30;93.50